Time;durP1;ratioP1;P1;durP2;ratioP2;P2;SDS_P1;SDS_P2;PMS_P1;PMS_P2;Temp;Humidity;BMP_temperature;BMP_pressure;BME280_temperature;BME280_humidity;BME280_pressure;Samples;Min_cycle;Max_cycle;Signal;HPM_P1;HPM_P2
2024/04/15 00:01:40;;;;;;;4.72;1.77;;;;;;;19.91;51.03;100507.06;5454338;26;20022;-77
2024/04/15 00:04:45;;;;;;;3.50;1.70;;;;;;;20.11;50.43;100510.88;5454469;26;20333;-80
2024/04/15 00:07:50;;;;;;;4.47;1.60;;;;;;;20.20;51.23;100507.00;5453384;26;20022;-79
2024/04/15 00:10:55;;;;;;;5.10;1.73;;;;;;;20.22;52.21;100502.19;5454462;26;20022;-79
2024/04/15 00:14:00;;;;;;;5.05;1.95;;;;;;;20.22;52.84;100504.09;5432604;26;20026;-79
2024/04/15 00:17:05;;;;;;;5.43;1.90;;;;;;;20.20;52.92;100493.38;5453659;26;20023;-79
2024/04/15 00:20:10;;;;;;;4.00;1.95;;;;;;;20.05;54.18;100487.13;5454115;26;20478;-78
2024/04/15 00:23:14;;;;;;;6.38;2.47;;;;;;;19.97;55.48;100488.06;5454084;26;20019;-79
2024/04/15 00:26:19;;;;;;;6.95;2.35;;;;;;;19.77;58.58;100494.34;5454352;26;20019;-78
2024/04/15 00:29:24;;;;;;;9.40;2.40;;;;;;;19.63;60.66;100482.41;5452906;26;20022;-79
2024/04/15 00:32:29;;;;;;;6.22;2.10;;;;;;;19.53;61.93;100487.31;5453084;26;20392;-78
2024/04/15 00:35:34;;;;;;;5.05;2.00;;;;;;;19.45;62.69;100487.44;5454212;26;20042;-78
2024/04/15 00:38:38;;;;;;;6.80;2.20;;;;;;;19.42;62.01;100477.75;5468203;26;20030;-78
2024/04/15 00:41:43;;;;;;;3.75;1.98;;;;;;;19.04;59.75;100473.38;5490758;26;20030;-79
2024/04/15 00:44:47;;;;;;;6.80;2.20;;;;;;;19.07;57.37;100466.72;5490453;26;20022;-76
2024/04/15 00:47:52;;;;;;;8.73;2.20;;;;;;;19.10;56.33;100458.19;5490452;26;20018;-79
2024/04/15 00:50:56;;;;;;;6.45;1.88;;;;;;;19.20;55.86;100456.88;5468326;26;20022;-79
2024/04/15 00:54:01;;;;;;;8.85;3.13;;;;;;;19.13;55.12;100455.09;5490411;26;20469;-79
2024/04/15 00:57:06;;;;;;;10.15;2.00;;;;;;;19.11;53.91;100446.28;5490260;26;20022;-77
2024/04/15 01:00:15;;;;;;;5.18;2.05;;;;;;;19.19;54.09;100441.59;5490529;26;20026;-79
2024/04/15 01:03:21;;;;;;;3.67;1.80;;;;;;;19.29;54.02;100433.13;5489971;26;20365;-79
2024/04/15 01:06:26;;;;;;;6.88;2.22;;;;;;;19.32;55.23;100433.59;5489742;26;20465;-78
2024/04/15 01:09:31;;;;;;;3.95;1.60;;;;;;;19.36;55.59;100429.50;5489659;26;20026;-79
2024/04/15 01:12:36;;;;;;;4.70;2.15;;;;;;;19.35;56.68;100437.81;5489677;26;20018;-79
2024/04/15 01:15:41;;;;;;;8.93;2.13;;;;;;;19.24;57.46;100430.13;5488601;26;20030;-79
2024/04/15 01:18:45;;;;;;;5.00;2.22;;;;;;;19.20;57.83;100421.50;5488534;26;20026;-77
2024/04/15 01:21:50;;;;;;;9.38;3.33;;;;;;;19.12;58.20;100421.59;5488531;26;20023;-78
2024/04/15 01:24:54;;;;;;;6.03;2.00;;;;;;;19.01;59.51;100430.22;5488891;26;20026;-78
2024/04/15 01:27:59;;;;;;;8.73;2.30;;;;;;;19.02;59.46;100412.03;5489219;26;20022;-78
2024/04/15 01:31:04;;;;;;;5.78;2.13;;;;;;;18.96;58.64;100401.91;5485257;26;20022;-78
2024/04/15 01:34:09;;;;;;;4.35;2.35;;;;;;;18.92;59.21;100397.84;5489425;26;20018;-77
2024/04/15 01:37:14;;;;;;;4.50;2.17;;;;;;;18.92;59.48;100397.84;5489192;26;20424;-77
2024/04/15 01:40:19;;;;;;;6.28;2.17;;;;;;;18.93;59.48;100407.72;5465721;26;20466;-77
2024/04/15 01:43:24;;;;;;;4.53;1.80;;;;;;;18.82;59.88;100395.41;5488512;26;20022;-78
2024/04/15 01:46:28;;;;;;;5.80;1.85;;;;;;;18.71;60.38;100395.88;5489456;26;20022;-79
2024/04/15 01:49:33;;;;;;;8.13;2.28;;;;;;;18.47;61.51;100396.09;5488070;26;20481;-79
2024/04/15 01:52:37;;;;;;;4.75;1.90;;;;;;;18.26;60.80;100388.63;5489312;26;20018;-78
2024/04/15 01:55:42;;;;;;;7.05;2.20;;;;;;;18.16;58.84;100388.03;5489521;26;20022;-79
2024/04/15 01:58:47;;;;;;;7.90;2.22;;;;;;;18.25;56.73;100377.94;5467047;26;20365;-79
2024/04/15 02:01:52;;;;;;;7.55;3.45;;;;;;;18.43;57.11;100370.28;5487963;26;20018;-79
2024/04/15 02:04:56;;;;;;;4.50;2.13;;;;;;;18.52;57.56;100378.22;5488794;26;20041;-79
2024/04/15 02:08:01;;;;;;;5.30;2.00;;;;;;;18.46;58.84;100373.53;5488813;26;20022;-76
2024/04/15 02:11:06;;;;;;;6.60;3.10;;;;;;;18.42;59.78;100374.88;5486157;26;20034;-79
2024/04/15 02:14:11;;;;;;;4.78;1.95;;;;;;;18.38;59.78;100379.00;5488896;26;20364;-79
2024/04/15 02:17:15;;;;;;;3.17;1.80;;;;;;;18.43;59.48;100373.88;5487584;26;20037;-78
2024/04/15 02:20:20;;;;;;;4.43;1.92;;;;;;;18.28;60.02;100363.97;5488727;26;20461;-78
2024/04/15 02:23:24;;;;;;;5.15;2.33;;;;;;;18.11;60.10;100374.16;5487694;26;20022;-79
2024/04/15 02:26:29;;;;;;;3.47;1.85;;;;;;;18.17;59.90;100376.16;5487465;26;20026;-79
2024/04/15 02:29:33;;;;;;;4.47;2.22;;;;;;;18.22;60.36;100371.00;5488496;26;20364;-79
2024/04/15 02:32:39;;;;;;;4.55;1.90;;;;;;;18.22;61.03;100362.84;5487501;26;20357;-78
2024/04/15 02:35:44;;;;;;;6.97;2.00;;;;;;;18.05;60.58;100364.00;5488441;26;20460;-79
2024/04/15 02:38:49;;;;;;;5.55;2.47;;;;;;;18.06;59.82;100347.53;5488204;26;20014;-78
2024/04/15 02:41:54;;;;;;;5.63;2.13;;;;;;;18.12;59.82;100348.69;5488268;26;20022;-78
2024/04/15 02:44:59;;;;;;;7.03;2.38;;;;;;;18.12;60.91;100341.38;5488233;26;20037;-78
2024/04/15 02:48:04;;;;;;;6.35;1.88;;;;;;;18.02;61.73;100334.50;5488347;26;20022;-78
2024/04/15 02:51:09;;;;;;;3.63;2.25;;;;;;;18.05;61.93;100339.56;5488180;26;20364;-79
2024/04/15 02:54:13;;;;;;;5.45;2.00;;;;;;;17.93;60.87;100335.59;5488581;26;20022;-79
2024/04/15 02:57:18;;;;;;;4.30;1.98;;;;;;;17.64;61.47;100324.63;5488028;26;20360;-78
2024/04/15 03:00:25;;;;;;;5.90;2.50;;;;;;;17.84;61.01;100323.13;5487567;26;20449;-78
2024/04/15 03:03:30;;;;;;;8.70;2.25;;;;;;;17.77;61.08;100319.44;5487883;26;20458;-79
2024/04/15 03:06:35;;;;;;;5.13;2.03;;;;;;;17.80;61.60;100317.19;5487574;26;20026;-78
2024/04/15 03:09:39;;;;;;;4.43;2.15;;;;;;;17.78;61.92;100316.53;5486389;26;20321;-79
2024/04/15 03:12:48;;;;;;;10.73;1.90;;;;;;;17.54;61.37;100308.56;5486271;26;20018;-79
2024/04/15 03:15:54;;;;;;;3.78;2.05;;;;;;;17.47;59.46;100304.88;5487726;26;20018;-78
2024/04/15 03:18:58;;;;;;;7.45;2.28;;;;;;;17.50;58.52;100312.66;5487591;26;20026;-78
2024/04/15 03:22:03;;;;;;;7.03;2.50;;;;;;;17.67;58.40;100303.41;5487549;26;20024;-79
2024/04/15 03:25:07;;;;;;;7.95;2.35;;;;;;;17.53;59.95;100306.88;5487491;26;20045;-78
2024/04/15 03:28:12;;;;;;;3.63;2.03;;;;;;;17.52;58.82;100300.63;5487782;26;20022;-79
2024/04/15 03:31:17;;;;;;;5.18;2.42;;;;;;;17.43;59.09;100290.81;5491268;26;20038;-78
2024/04/15 03:34:21;;;;;;;5.30;2.60;;;;;;;17.30;58.49;100289.72;5491244;26;20018;-79
2024/04/15 03:37:26;;;;;;;3.75;1.92;;;;;;;17.21;58.32;100282.63;5491337;26;20481;-78
2024/04/15 03:40:31;;;;;;;6.32;2.28;;;;;;;17.41;58.05;100292.00;5491035;26;20426;-77
2024/04/15 03:43:36;;;;;;;5.20;2.35;;;;;;;17.54;59.15;100286.88;5491161;26;20014;-77
2024/04/15 03:46:41;;;;;;;4.82;2.00;;;;;;;17.46;60.18;100276.88;5490905;26;20022;-77
2024/04/15 03:49:45;;;;;;;3.67;2.30;;;;;;;17.44;60.02;100261.81;5490743;26;20022;-77
2024/04/15 03:52:50;;;;;;;5.25;1.90;;;;;;;17.34;61.11;100266.63;5490827;26;20457;-77
2024/04/15 03:55:56;;;;;;;5.22;2.13;;;;;;;17.38;61.02;100266.06;5491275;26;20022;-77
2024/04/15 03:59:02;;;;;;;7.72;2.28;;;;;;;17.41;59.99;100246.72;5490667;26;20018;-77
2024/04/15 04:02:07;;;;;;;3.15;2.05;;;;;;;17.30;59.86;100244.44;5490902;26;20017;-77
2024/04/15 04:05:12;;;;;;;4.80;2.03;;;;;;;17.30;60.11;100236.31;5490889;26;20026;-79
2024/04/15 04:08:17;;;;;;;4.65;1.98;;;;;;;17.34;60.17;100234.06;5489556;26;20134;-78
2024/04/15 04:11:22;;;;;;;4.72;2.30;;;;;;;17.36;60.54;100249.13;5490659;26;20026;-79
2024/04/15 04:14:28;;;;;;;4.03;1.95;;;;;;;17.18;61.11;100247.75;5478600;26;20391;-79
2024/04/15 04:17:33;;;;;;;4.80;1.90;;;;;;;17.26;61.06;100248.53;5454142;26;20370;-78
2024/04/15 04:20:37;;;;;;;6.70;1.95;;;;;;;17.32;60.54;100246.97;5453933;26;20026;-78
2024/04/15 04:23:43;;;;;;;7.18;2.10;;;;;;;17.31;60.36;100235.25;5454744;26;20316;-78
2024/04/15 04:26:47;;;;;;;4.38;1.80;;;;;;;17.30;60.28;100235.47;5452767;26;20458;-78
2024/04/15 04:29:52;;;;;;;8.50;2.33;;;;;;;17.25;60.55;100240.56;5454052;26;20026;-78
2024/04/15 04:32:58;;;;;;;5.10;2.50;;;;;;;16.98;60.13;100233.81;5453019;26;20038;-79
2024/04/15 04:36:03;;;;;;;5.32;2.55;;;;;;;17.13;59.82;100239.31;5454216;26;20465;-77
2024/04/15 04:39:07;;;;;;;10.70;2.45;;;;;;;17.18;59.80;100240.47;5453745;26;20023;-78
2024/04/15 04:42:12;;;;;;;5.90;2.38;;;;;;;17.02;59.86;100234.28;5453396;26;20021;-76
2024/04/15 04:45:17;;;;;;;5.57;2.40;;;;;;;17.31;59.10;100226.28;5453765;26;20023;-77
2024/04/15 04:48:22;;;;;;;8.65;2.25;;;;;;;16.95;61.01;100226.03;5453821;26;20027;-79
2024/04/15 04:51:26;;;;;;;5.57;1.98;;;;;;;17.24;59.87;100220.72;5417864;26;20019;-78
2024/04/15 04:54:31;;;;;;;4.53;2.50;;;;;;;16.87;60.90;100217.94;5417831;26;20019;-79
2024/04/15 04:57:36;;;;;;;6.88;2.78;;;;;;;16.97;61.22;100228.53;5418000;26;20379;-79
2024/04/15 05:00:41;;;;;;;6.90;2.60;;;;;;;16.90;60.97;100223.84;5417983;26;20047;-77
2024/04/15 05:03:49;;;;;;;6.18;2.22;;;;;;;17.25;59.69;100227.00;5417502;26;20370;-77
2024/04/15 05:06:54;;;;;;;5.72;2.33;;;;;;;17.62;59.00;100212.66;5417578;26;20024;-77
2024/04/15 05:09:59;;;;;;;6.60;2.22;;;;;;;18.33;57.53;100210.22;5416751;26;20023;-77
2024/04/15 05:13:04;;;;;;;9.27;3.20;;;;;;;18.41;55.70;100209.28;5416344;26;20024;-78
2024/04/15 05:16:10;;;;;;;6.60;2.30;;;;;;;20.17;50.75;100215.72;5417455;26;20027;-77
2024/04/15 05:19:15;;;;;;;4.60;2.08;;;;;;;21.84;46.52;100210.44;5417407;26;20019;-78
2024/04/15 05:22:20;;;;;;;5.50;2.50;;;;;;;22.34;44.31;100201.59;5417452;26;20023;-79
2024/04/15 05:25:25;;;;;;;9.82;2.20;;;;;;;23.00;42.05;100196.72;5419841;26;20035;-79
2024/04/15 05:28:30;;;;;;;4.90;2.22;;;;;;;24.01;40.59;100200.19;5417319;26;20463;-78
2024/04/15 05:31:35;;;;;;;4.10;1.90;;;;;;;24.77;39.03;100197.94;5417498;26;20463;-79
2024/04/15 05:34:42;;;;;;;5.30;1.92;;;;;;;25.71;37.62;100195.31;5417200;26;20020;-79
2024/04/15 05:37:47;;;;;;;5.72;2.28;;;;;;;25.90;37.46;100203.47;5417247;26;20023;-77
2024/04/15 05:40:52;;;;;;;11.35;2.83;;;;;;;26.01;37.03;100192.47;5417107;26;20020;-78
2024/04/15 05:43:57;;;;;;;6.30;2.53;;;;;;;25.36;37.80;100193.53;5395464;26;20023;-78
2024/04/15 05:47:01;;;;;;;5.65;2.05;;;;;;;24.88;38.82;100213.66;5443562;26;20027;-79
2024/04/15 05:50:06;;;;;;;5.13;2.20;;;;;;;24.68;39.77;100191.06;5452930;26;20027;-74
2024/04/15 05:53:10;;;;;;;8.98;4.40;;;;;;;23.78;41.38;100191.75;5452114;26;20023;-78
2024/04/15 05:56:15;;;;;;;5.78;3.20;;;;;;;23.34;42.87;100195.44;5448813;26;20026;-75
2024/04/15 05:59:19;;;;;;;7.47;2.53;;;;;;;23.04;43.48;100186.16;5427079;26;20023;-74
2024/04/15 06:02:25;;;;;;;6.55;2.00;;;;;;;22.93;43.75;100187.69;5415138;26;20023;-74
2024/04/15 06:05:30;;;;;;;6.40;2.78;;;;;;;22.82;43.67;100203.94;5417107;26;20028;-74
2024/04/15 06:08:34;;;;;;;7.50;2.30;;;;;;;23.13;43.74;100195.81;5415934;26;20027;-75
2024/04/15 06:11:39;;;;;;;9.48;2.47;;;;;;;23.13;44.92;100190.31;5417481;26;20023;-74
2024/04/15 06:14:45;;;;;;;4.45;2.33;;;;;;;23.21;44.97;100188.16;5415525;26;20004;-75
2024/04/15 06:17:50;;;;;;;7.72;2.78;;;;;;;23.49;44.49;100179.56;5447557;26;20023;-72
2024/04/15 06:20:54;;;;;;;6.47;2.30;;;;;;;23.78;44.16;100189.84;5415830;26;20024;-80
2024/04/15 06:23:59;;;;;;;10.32;3.03;;;;;;;24.09;43.35;100191.72;5418712;26;20019;-80
2024/04/15 06:27:04;;;;;;;9.23;2.15;;;;;;;24.64;43.04;100189.81;5418423;26;20024;-84
2024/04/15 06:30:09;;;;;;;3.88;1.80;;;;;;;24.35;42.66;100174.13;5417186;26;20361;-73
2024/04/15 06:33:14;;;;;;;7.38;2.10;;;;;;;24.10;42.37;100170.59;5417495;26;20019;-74
2024/04/15 06:36:19;;;;;;;5.82;2.00;;;;;;;23.91;45.29;100167.81;5417054;26;20027;-75
2024/04/15 06:39:24;;;;;;;7.78;2.25;;;;;;;23.79;46.67;100166.88;5408026;26;20026;-76
2024/04/15 06:42:31;;;;;;;4.60;1.75;;;;;;;23.69;48.55;100168.44;5415329;26;20019;-76
2024/04/15 06:45:36;;;;;;;9.60;1.90;;;;;;;23.90;47.41;100165.28;5414306;26;20019;-74
2024/04/15 06:48:43;;;;;;;8.88;2.22;;;;;;;23.68;45.50;100178.56;5416553;26;20352;-74
2024/04/15 06:51:48;;;;;;;13.07;2.40;;;;;;;23.86;45.62;100169.53;5416974;26;20020;-74
2024/04/15 06:54:52;;;;;;;17.10;2.63;;;;;;;24.05;42.80;100178.66;5415717;26;20024;-73
2024/04/15 06:57:56;;;;;;;12.45;2.47;;;;;;;24.37;39.19;100172.00;5416436;26;20032;-74
2024/04/15 07:01:11;;;;;;;11.02;2.67;;;;;;;24.65;39.21;100174.19;5416384;26;20019;-74
2024/04/15 07:04:15;;;;;;;8.05;2.20;;;;;;;24.87;38.34;100156.19;5418376;26;20024;-75
2024/04/15 07:07:25;;;;;;;6.68;2.00;;;;;;;25.13;37.94;100173.13;5419973;26;20027;-76
2024/04/15 07:10:31;;;;;;;10.18;2.10;;;;;;;25.32;38.52;100170.34;5419101;26;20023;-76
2024/04/15 07:13:37;;;;;;;7.28;2.17;;;;;;;25.72;38.15;100168.66;5419487;26;20023;-76
2024/04/15 07:16:42;;;;;;;7.15;2.70;;;;;;;26.04;37.58;100161.75;5419322;26;20389;-76
2024/04/15 07:19:47;;;;;;;6.93;1.52;;;;;;;26.20;38.56;100165.69;5419107;26;20159;-76
2024/04/15 07:22:51;;;;;;;5.40;1.70;;;;;;;26.66;37.43;100159.28;5419181;26;20011;-75
2024/04/15 07:26:01;;;;;;;6.43;1.88;;;;;;;28.30;35.28;100150.63;5419441;26;20027;-76
2024/04/15 07:29:05;;;;;;;7.72;2.13;;;;;;;29.74;32.25;100161.97;5419227;26;20024;-76
2024/04/15 07:32:11;;;;;;;7.07;1.52;;;;;;;31.32;30.52;100155.91;5419482;26;20027;-77
2024/04/15 07:35:16;;;;;;;7.00;1.83;;;;;;;32.17;29.10;100157.06;5419146;26;20377;-77
2024/04/15 07:38:20;;;;;;;6.15;2.05;;;;;;;33.23;27.81;100160.25;5418736;26;20023;-76
2024/04/15 07:41:25;;;;;;;7.35;2.30;;;;;;;33.85;26.81;100164.28;5418581;26;20024;-78
2024/04/15 07:44:30;;;;;;;7.43;2.00;;;;;;;33.68;26.02;100173.03;5419376;26;20023;-80
2024/04/15 07:47:35;;;;;;;6.80;1.98;;;;;;;33.23;26.83;100165.00;5419492;26;20494;-78
2024/04/15 07:50:41;;;;;;;6.47;1.85;;;;;;;33.20;25.01;100168.34;5419505;26;20359;-77
2024/04/15 07:53:46;;;;;;;6.30;1.88;;;;;;;32.91;26.46;100157.09;5418304;26;20019;-77
2024/04/15 07:56:50;;;;;;;34.00;28.02;;;;;;;32.66;26.83;100151.63;5419157;26;20015;-76
2024/04/15 07:59:55;;;;;;;17.33;11.73;;;;;;;32.85;26.72;100151.81;5419037;26;20028;-75
2024/04/15 08:03:03;;;;;;;10.07;3.60;;;;;;;33.48;25.83;100150.06;5418660;26;20020;-77
2024/04/15 08:06:07;;;;;;;9.25;2.13;;;;;;;34.61;24.54;100150.41;5418725;26;20318;-76
2024/04/15 08:09:13;;;;;;;6.25;1.65;;;;;;;36.20;23.50;100150.22;5418258;26;20035;-77
2024/04/15 08:12:18;;;;;;;8.60;2.45;;;;;;;37.04;22.49;100136.75;5418959;26;20023;-78
2024/04/15 08:15:23;;;;;;;7.82;1.95;;;;;;;37.05;21.40;100144.03;5417779;26;20020;-78
2024/04/15 08:18:28;;;;;;;9.27;2.05;;;;;;;36.95;21.57;100147.88;5419037;26;20024;-78
2024/04/15 08:21:33;;;;;;;10.00;2.55;;;;;;;37.79;21.81;100150.91;5418702;26;20020;-77
2024/04/15 08:24:37;;;;;;;6.60;1.85;;;;;;;37.38;22.03;100148.25;5417667;26;20019;-78
2024/04/15 08:27:43;;;;;;;5.47;1.63;;;;;;;36.31;23.37;100142.47;5418960;26;20024;-77
2024/04/15 08:30:48;;;;;;;8.85;1.90;;;;;;;35.49;23.26;100130.19;5418576;26;20361;-75
2024/04/15 08:33:53;;;;;;;7.93;1.83;;;;;;;34.97;24.09;100131.22;5418500;26;20362;-78
2024/04/15 08:36:57;;;;;;;6.32;1.67;;;;;;;34.01;25.13;100135.13;5418606;26;20023;-77
2024/04/15 08:40:04;;;;;;;6.88;1.90;;;;;;;33.33;25.72;100137.91;5418861;26;20019;-78
2024/04/15 08:43:13;;;;;;;6.45;1.73;;;;;;;33.67;25.51;100134.34;5418450;26;20330;-78
2024/04/15 08:46:23;;;;;;;7.55;1.80;;;;;;;33.55;24.63;100131.94;5418773;26;20028;-77
2024/04/15 08:49:28;;;;;;;6.20;2.22;;;;;;;33.03;25.61;100131.72;5418578;26;20024;-77
2024/04/15 08:52:33;;;;;;;7.15;1.80;;;;;;;32.98;26.34;100140.06;5418311;26;20035;-77
2024/04/15 08:55:38;;;;;;;8.63;2.22;;;;;;;32.79;26.88;100135.16;5418316;26;20463;-77
2024/04/15 08:58:48;;;;;;;9.43;1.90;;;;;;;32.66;26.62;100138.56;5418008;26;20023;-76
2024/04/15 09:01:54;;;;;;;4.80;1.90;;;;;;;32.31;27.08;100140.59;5417737;26;20028;-78
2024/04/15 09:04:59;;;;;;;6.85;1.90;;;;;;;32.12;26.60;100140.41;5417832;26;20027;-77
2024/04/15 09:08:04;;;;;;;5.70;1.98;;;;;;;32.13;27.58;100145.66;5417510;26;20023;-76
2024/04/15 09:11:09;;;;;;;6.47;2.35;;;;;;;31.91;28.95;100141.50;5414398;26;20019;-77
2024/04/15 09:14:15;;;;;;;6.97;2.28;;;;;;;31.72;28.38;100132.91;5417782;26;20024;-77
2024/04/15 09:17:19;;;;;;;13.88;2.65;;;;;;;31.13;29.22;100140.91;5417847;26;20454;-77
2024/04/15 09:20:24;;;;;;;10.40;2.10;;;;;;;30.77;29.45;100130.75;5416476;26;20023;-76
2024/04/15 09:23:29;;;;;;;4.38;2.10;;;;;;;30.81;30.18;100129.13;5417570;26;20023;-77
2024/04/15 09:26:34;;;;;;;9.20;2.35;;;;;;;30.94;30.32;100109.22;5417507;26;20020;-75
2024/04/15 09:29:39;;;;;;;5.72;1.60;;;;;;;30.92;29.15;100116.97;5417884;26;20020;-76
2024/04/15 09:32:44;;;;;;;8.20;2.00;;;;;;;30.95;28.42;100116.44;5416658;26;20023;-76
2024/04/15 09:35:48;;;;;;;6.90;2.13;;;;;;;31.09;28.22;100106.47;5417511;26;20023;-76
2024/04/15 09:38:54;;;;;;;9.93;1.88;;;;;;;30.84;27.11;100098.91;5416196;26;20023;-77
2024/04/15 09:41:59;;;;;;;5.47;1.70;;;;;;;30.65;26.74;100099.69;5417422;26;20019;-75
2024/04/15 09:45:08;;;;;;;4.05;1.23;;;;;;;30.60;27.11;100094.13;5417123;26;20023;-75
2024/04/15 09:48:22;;;;;;;7.03;2.00;;;;;;;30.97;27.84;100091.19;5417148;26;20024;-76
2024/04/15 09:51:42;;;;;;;6.97;2.10;;;;;;;31.20;27.14;100093.47;5417180;26;20023;-77
2024/04/15 09:54:57;;;;;;;4.57;1.45;;;;;;;31.05;26.96;100088.72;5417051;26;20023;-77
2024/04/15 09:58:03;;;;;;;6.03;1.80;;;;;;;30.52;26.57;100083.56;5417049;26;20024;-77
2024/04/15 10:01:08;;;;;;;6.75;1.67;;;;;;;30.21;27.41;100075.13;5416791;26;20019;-77
2024/04/15 10:04:23;;;;;;;7.45;2.15;;;;;;;30.21;27.32;100083.41;5417701;26;20465;-84
2024/04/15 10:07:29;;;;;;;5.88;1.67;;;;;;;30.17;26.15;100082.28;5416221;26;20024;-84
2024/04/15 10:10:36;;;;;;;9.25;1.83;;;;;;;30.60;24.29;100077.50;5416689;26;20343;-77
2024/04/15 10:13:41;;;;;;;6.35;1.65;;;;;;;29.87;23.75;100073.81;5416449;26;20023;-75
2024/04/15 10:16:48;;;;;;;8.95;1.48;;;;;;;29.24;24.33;100071.06;5416445;26;20023;-75
2024/04/15 10:19:53;;;;;;;6.80;1.17;;;;;;;29.87;24.77;100059.97;5416850;26;20023;-77
2024/04/15 10:23:04;;;;;;;4.55;1.25;;;;;;;29.91;23.47;100050.03;5416596;26;20024;-74
2024/04/15 10:26:10;;;;;;;5.78;1.13;;;;;;;29.88;22.76;100055.25;5416879;26;20471;-77
2024/04/15 10:29:18;;;;;;;4.38;1.25;;;;;;;29.62;22.26;100045.94;5416501;26;20023;-75
2024/04/15 10:32:25;;;;;;;5.72;1.00;;;;;;;29.36;22.56;100046.84;5416161;26;20043;-77
2024/04/15 10:35:33;;;;;;;5.38;1.38;;;;;;;29.17;22.40;100042.78;5415338;26;20474;-77
2024/04/15 10:38:48;;;;;;;5.03;1.15;;;;;;;29.06;22.51;100046.56;5417008;26;20031;-77
2024/04/15 10:41:53;;;;;;;6.95;1.20;;;;;;;29.33;22.67;100039.09;5419777;26;20024;-76
2024/04/15 10:44:58;;;;;;;4.07;1.20;;;;;;;29.30;22.30;100028.56;5397835;26;20027;-77
2024/04/15 10:48:04;;;;;;;4.47;1.02;;;;;;;29.08;22.29;100025.88;5419838;26;20358;-76
2024/04/15 10:51:09;;;;;;;5.40;1.38;;;;;;;29.33;21.16;100031.59;5419541;26;20024;-77
2024/04/15 10:54:14;;;;;;;3.92;1.17;;;;;;;29.11;21.55;100022.53;5419662;26;20023;-76
2024/04/15 10:57:20;;;;;;;4.47;1.00;;;;;;;28.89;22.00;100011.59;5419439;26;20035;-76
2024/04/15 11:00:25;;;;;;;5.13;1.30;;;;;;;28.50;21.49;100014.75;5419877;26;20027;-77
2024/04/15 11:03:32;;;;;;;7.97;1.17;;;;;;;28.46;21.72;100005.31;5420686;26;20023;-75
2024/04/15 11:06:38;;;;;;;6.13;1.20;;;;;;;28.10;21.16;100002.13;5420504;26;20024;-77
2024/04/15 11:09:43;;;;;;;5.00;0.98;;;;;;;28.56;20.92;99999.91;5398772;26;20020;-77
2024/04/15 11:12:54;;;;;;;8.95;1.10;;;;;;;28.38;21.83;100004.69;5419473;26;20019;-76
2024/04/15 11:15:59;;;;;;;2.65;1.00;;;;;;;28.86;21.37;100003.00;5419133;26;20027;-76
2024/04/15 11:19:07;;;;;;;6.10;1.00;;;;;;;28.82;21.52;100002.69;5417842;26;20023;-76
2024/04/15 11:22:12;;;;;;;5.00;1.00;;;;;;;28.58;21.47;99994.94;5419392;26;20023;-77
2024/04/15 11:25:18;;;;;;;4.78;1.10;;;;;;;28.63;20.95;99998.63;5419228;26;20023;-76
2024/04/15 11:28:24;;;;;;;2.00;0.90;;;;;;;28.61;21.38;99997.22;5419422;26;20447;-76
2024/04/15 11:31:30;;;;;;;8.88;2.08;;;;;;;28.82;20.79;99980.56;5397926;26;20023;-75
2024/04/15 11:34:36;;;;;;;4.93;1.35;;;;;;;28.38;20.41;99979.00;5419260;26;20027;-77
2024/04/15 11:37:42;;;;;;;6.00;1.67;;;;;;;28.15;19.82;99971.00;5419127;26;20027;-77
2024/04/15 11:40:48;;;;;;;5.60;1.90;;;;;;;28.57;19.90;99963.72;5418499;26;20019;-77
2024/04/15 11:43:52;;;;;;;6.45;1.20;;;;;;;28.55;19.86;99946.59;5418420;26;20028;-77
2024/04/15 11:46:59;;;;;;;4.45;1.08;;;;;;;27.86;19.97;99948.28;5418621;26;20024;-76
2024/04/15 11:50:05;;;;;;;3.67;1.55;;;;;;;28.06;20.48;99961.50;5416228;26;20025;-76
2024/04/15 11:53:10;;;;;;;4.55;1.10;;;;;;;27.98;20.25;99946.22;5418644;26;20396;-77
2024/04/15 11:56:16;;;;;;;4.28;1.30;;;;;;;27.96;20.07;99951.16;5418406;26;20019;-76
2024/04/15 11:59:21;;;;;;;5.25;1.20;;;;;;;27.93;19.87;99948.91;5418414;26;20019;-76
2024/04/15 12:02:26;;;;;;;6.30;1.10;;;;;;;27.99;20.55;99930.50;5418872;26;20027;-77
2024/04/15 12:05:32;;;;;;;2.80;1.20;;;;;;;28.18;21.08;99927.16;5418911;26;20023;-79
2024/04/15 12:08:37;;;;;;;5.05;1.55;;;;;;;27.97;21.33;99922.47;5418816;26;20027;-75
2024/04/15 12:11:42;;;;;;;4.05;1.38;;;;;;;27.74;21.06;99897.91;5417356;26;20023;-78
2024/04/15 12:14:47;;;;;;;3.30;0.85;;;;;;;27.64;21.40;99893.13;5418469;26;20019;-75
2024/04/15 12:17:52;;;;;;;7.05;1.50;;;;;;;27.65;21.61;99869.94;5418309;26;20016;-76
2024/04/15 12:20:57;;;;;;;3.13;0.77;;;;;;;27.57;21.38;99886.97;5417128;26;20019;-76
2024/04/15 12:24:01;;;;;;;3.03;0.90;;;;;;;27.46;21.23;99874.13;5418341;26;20028;-77
2024/04/15 12:27:07;;;;;;;3.72;1.23;;;;;;;27.80;22.04;99888.59;5418205;26;20024;-76
2024/04/15 12:30:12;;;;;;;5.43;1.25;;;;;;;28.07;22.13;99883.16;5418037;26;20451;-76
2024/04/15 12:33:17;;;;;;;4.25;1.13;;;;;;;27.71;22.35;99870.84;5418288;26;20019;-76
2024/04/15 12:36:22;;;;;;;4.75;1.52;;;;;;;28.02;22.50;99886.66;5417804;26;20035;-76
2024/04/15 12:39:27;;;;;;;3.30;0.90;;;;;;;27.80;22.08;99882.28;5417865;26;20023;-77
2024/04/15 12:42:31;;;;;;;7.63;0.90;;;;;;;28.11;22.77;99862.22;5417689;26;20019;-75
2024/04/15 12:45:36;;;;;;;2.22;0.75;;;;;;;27.79;22.55;99858.53;5417159;26;20016;-74
2024/04/15 12:48:41;;;;;;;3.17;1.05;;;;;;;28.00;23.26;99854.91;5416690;26;20423;-78
2024/04/15 12:51:46;;;;;;;5.03;1.25;;;;;;;28.01;22.75;99845.53;5418043;26;20451;-74
2024/04/15 12:54:52;;;;;;;7.53;1.63;;;;;;;27.99;23.35;99847.72;5417675;26;20361;-77
2024/04/15 12:57:57;;;;;;;3.67;1.05;;;;;;;28.18;23.89;99857.31;5417678;26;20023;-74
2024/04/15 13:01:05;;;;;;;7.82;1.52;;;;;;;28.31;22.50;99848.59;5416245;26;20027;-76
2024/04/15 13:04:10;;;;;;;4.60;1.20;;;;;;;28.24;23.27;99850.75;5417685;26;20475;-76
2024/04/15 13:07:15;;;;;;;4.20;1.30;;;;;;;28.20;23.38;99849.59;5417922;26;20023;-77
2024/04/15 13:10:20;;;;;;;4.72;1.33;;;;;;;28.29;24.32;99842.53;5417583;26;20020;-76
2024/04/15 13:13:25;;;;;;;4.88;0.95;;;;;;;28.27;23.27;99850.22;5416400;26;20024;-74
2024/04/15 13:16:29;;;;;;;3.67;1.15;;;;;;;27.93;23.94;99848.72;5417888;26;20019;-77
2024/04/15 13:19:34;;;;;;;4.15;1.17;;;;;;;28.09;23.69;99847.84;5416545;26;20020;-77
2024/04/15 13:22:38;;;;;;;4.05;1.13;;;;;;;28.12;23.32;99842.63;5417029;26;20024;-76
2024/04/15 13:25:43;;;;;;;5.68;1.13;;;;;;;27.91;23.24;99829.69;5418001;26;20031;-77
2024/04/15 13:28:48;;;;;;;4.63;1.00;;;;;;;28.09;23.79;99820.25;5416690;26;20028;-76
2024/04/15 13:31:52;;;;;;;6.03;1.30;;;;;;;28.11;23.97;99807.00;5417314;26;20024;-76
2024/04/15 13:34:59;;;;;;;2.13;0.93;;;;;;;28.26;22.09;99802.47;5417397;26;20024;-74
2024/04/15 13:38:04;;;;;;;3.13;1.20;;;;;;;27.89;23.56;99809.81;5417400;26;20024;-76
2024/04/15 13:41:09;;;;;;;4.05;1.15;;;;;;;27.84;24.14;99800.66;5417324;26;20019;-77
2024/04/15 13:44:16;;;;;;;4.38;1.48;;;;;;;28.16;23.99;99799.63;5417670;26;20023;-76
2024/04/15 13:47:20;;;;;;;3.22;1.20;;;;;;;28.00;24.31;99794.19;5416453;26;20023;-78
2024/04/15 13:50:25;;;;;;;3.90;1.27;;;;;;;27.88;23.79;99776.94;5417847;26;20020;-77
2024/04/15 13:53:31;;;;;;;5.07;1.20;;;;;;;27.71;25.20;99774.31;5417474;26;20019;-78
2024/04/15 13:56:36;;;;;;;3.80;1.20;;;;;;;27.11;24.63;99768.88;5417655;26;20027;-78
2024/04/15 13:59:41;;;;;;;7.03;1.27;;;;;;;27.72;25.55;99763.03;5416910;26;20019;-76
2024/04/15 14:02:46;;;;;;;2.97;1.38;;;;;;;28.07;25.18;99756.22;5417994;26;20019;-76
2024/04/15 14:05:50;;;;;;;3.17;1.35;;;;;;;28.20;23.92;99756.56;5417666;26;20019;-76
2024/04/15 14:08:55;;;;;;;6.15;1.80;;;;;;;27.84;24.92;99751.81;5417527;26;20023;-77
2024/04/15 14:11:59;;;;;;;4.43;1.42;;;;;;;27.78;24.82;99736.31;5416078;26;20458;-74
2024/04/15 14:15:05;;;;;;;8.90;1.60;;;;;;;27.60;25.18;99745.78;5416499;26;20027;-74
2024/04/15 14:18:10;;;;;;;6.20;1.98;;;;;;;27.38;25.39;99730.38;5395200;26;20427;-75
2024/04/15 14:21:14;;;;;;;5.45;1.65;;;;;;;27.36;25.17;99724.25;5416863;26;20020;-76
2024/04/15 14:24:19;;;;;;;2.92;0.95;;;;;;;27.50;25.05;99731.91;5416768;26;20027;-75